Time;durP1;ratioP1;P1;durP2;ratioP2;P2;SDS_P1;SDS_P2;PMS_P1;PMS_P2;Temp;Humidity;BMP_temperature;BMP_pressure;BME280_temperature;BME280_humidity;BME280_pressure;Samples;Min_cycle;Max_cycle;Signal;HPM_P1;HPM_P2
2023/10/25 00:01:19;;;;;;;;;;;7.50;99.90;;;6.39;100.00;96471.16;5025388;28;1673;-74
2023/10/25 00:03:46;;;;;;;;;;;7.40;99.90;;;6.45;100.00;96465.75;5026694;28;1586;-73
2023/10/25 00:06:14;;;;;;;;;;;7.40;99.90;;;6.34;100.00;96467.94;5027584;28;1496;-70
2023/10/25 00:08:40;;;;;;;;;;;7.30;99.90;;;6.26;100.00;96470.00;5042945;28;1677;-74
2023/10/25 00:11:07;;;;;;;;;;;7.30;99.90;;;6.34;100.00;96472.25;5020218;28;1508;-73
2023/10/25 00:13:35;;;;;;;;;;;7.40;99.90;;;6.53;100.00;96457.66;5026063;28;1991;-74
2023/10/25 00:16:03;;;;;;;;;;;7.50;99.90;;;6.65;100.00;96457.09;5015750;28;1506;-74
2023/10/25 00:18:30;;;;;;;;;;;7.50;99.90;;;6.63;100.00;96452.91;5018917;28;1400;-74
2023/10/25 00:20:57;;;;;;;;;;;7.60;99.90;;;6.68;100.00;96449.25;5020644;28;1453;-73
2023/10/25 00:23:24;;;;;;;;;;;7.70;99.90;;;6.46;100.00;96438.22;5025319;28;1554;-74
2023/10/25 00:25:52;;;;;;;;;;;7.70;99.90;;;6.51;100.00;96438.84;5021933;28;1634;-73
2023/10/25 00:28:19;;;;;;;;;;;7.70;99.90;;;6.48;100.00;96447.53;5021041;28;1620;-74
2023/10/25 00:30:46;;;;;;;;;;;7.50;99.90;;;6.36;100.00;96455.81;5010635;28;1515;-74
2023/10/25 00:33:13;;;;;;;;;;;7.40;99.90;;;6.31;100.00;96459.50;5022770;28;1922;-73
2023/10/25 00:35:40;;;;;;;;;;;7.30;99.90;;;6.28;100.00;96453.56;5024238;28;1625;-74
2023/10/25 00:38:07;;;;;;;;;;;7.40;99.90;;;6.32;100.00;96443.97;5022528;28;1572;-74
2023/10/25 00:40:34;;;;;;;;;;;7.40;99.90;;;6.43;100.00;96444.34;5021624;28;1465;-74
2023/10/25 00:43:20;;;;;;;;;;;7.50;99.90;;;6.58;100.00;96439.41;5025864;28;1437;-74
2023/10/25 00:46:08;;;;;;;;;;;7.50;99.90;;;6.47;100.00;96439.88;5024532;28;1562;-74
2023/10/25 00:48:36;;;;;;;;;;;7.60;99.90;;;6.42;100.00;96445.22;5023638;28;1505;-73
2023/10/25 00:51:03;;;;;;;;;;;7.50;99.90;;;6.55;100.00;96444.69;5023140;28;1475;-72
2023/10/25 00:53:32;;;;;;;;;;;7.50;99.90;;;6.52;100.00;96437.91;5020623;28;1898;-73
2023/10/25 00:56:00;;;;;;;;;;;7.50;99.90;;;6.45;100.00;96446.84;5020345;28;1658;-73
2023/10/25 00:58:28;;;;;;;;;;;7.50;99.90;;;6.47;100.00;96445.03;5024708;28;1319;-74
2023/10/25 01:00:55;;;;;;;;;;;7.50;99.90;;;6.45;100.00;96444.25;5021329;28;1388;-74
2023/10/25 01:03:22;;;;;;;;;;;7.50;99.90;;;6.63;100.00;96438.28;5019557;28;1530;-74
2023/10/25 01:05:49;;;;;;;;;;;7.50;99.90;;;6.74;100.00;96432.63;5036419;28;1577;-73
2023/10/25 01:08:18;;;;;;;;;;;7.50;99.90;;;6.49;100.00;96435.50;5021941;28;1387;-73
2023/10/25 01:10:50;;;;;;;;;;;7.60;99.90;;;6.59;100.00;96433.31;5029574;28;1541;-74
2023/10/25 01:13:18;;;;;;;;;;;7.60;99.90;;;6.45;100.00;96437.38;5026257;28;1894;-73
2023/10/25 01:15:46;;;;;;;;;;;7.60;99.90;;;6.39;100.00;96444.53;5031869;28;1371;-74
2023/10/25 01:18:14;;;;;;;;;;;7.60;99.90;;;6.24;100.00;96444.28;5024118;28;1451;-74
2023/10/25 01:20:42;;;;;;;;;;;7.50;99.90;;;6.20;100.00;96437.63;5022182;28;1427;-73
2023/10/25 01:23:09;;;;;;;;;;;7.50;99.90;;;6.10;100.00;96426.03;5021102;28;1437;-74
2023/10/25 01:25:37;;;;;;;;;;;7.30;99.90;;;6.14;100.00;96432.72;5019463;28;1443;-74
2023/10/25 01:28:05;;;;;;;;;;;7.20;99.90;;;6.03;100.00;96432.34;5019168;28;1573;-73
2023/10/25 01:30:32;;;;;;;;;;;7.10;99.90;;;5.94;100.00;96428.41;5025454;28;1427;-73
2023/10/25 01:32:59;;;;;;;;;;;7.10;99.90;;;5.94;100.00;96432.72;5018709;28;1906;-74
2023/10/25 01:35:27;;;;;;;;;;;7.10;99.90;;;6.08;100.00;96426.09;5025110;28;1435;-74
2023/10/25 01:37:54;;;;;;;;;;;7.10;99.90;;;6.15;100.00;96433.56;5020655;28;1391;-74
2023/10/25 01:40:21;;;;;;;;;;;7.20;99.90;;;6.15;100.00;96428.41;5032926;28;1589;-74
2023/10/25 01:42:51;;;;;;;;;;;7.20;99.90;;;6.19;100.00;96430.78;5021295;28;1438;-73
2023/10/25 01:45:23;;;;;;;;;;;7.20;99.90;;;6.22;100.00;96430.63;5024190;28;1432;-73
2023/10/25 01:47:50;;;;;;;;;;;7.20;99.90;;;6.23;100.00;96426.34;5023430;28;1722;-72
2023/10/25 01:50:18;;;;;;;;;;;7.20;99.90;;;6.25;100.00;96424.53;5022255;28;1447;-73
2023/10/25 01:52:45;;;;;;;;;;;7.30;99.90;;;6.12;100.00;96423.41;5037875;28;1980;-74
2023/10/25 01:55:13;;;;;;;;;;;7.20;99.90;;;6.20;100.00;96421.31;5022850;28;1421;-74
2023/10/25 01:57:42;;;;;;;;;;;7.20;99.90;;;6.18;100.00;96425.69;5021680;28;1953;-74
2023/10/25 02:00:09;;;;;;;;;;;7.10;99.90;;;6.17;100.00;96416.28;5020902;28;1433;-74
2023/10/25 02:02:36;;;;;;;;;;;7.10;99.90;;;5.98;100.00;96418.84;5022160;28;1470;-73
2023/10/25 02:05:03;;;;;;;;;;;7.10;99.90;;;5.93;100.00;96410.41;5018385;28;1404;-74
2023/10/25 02:07:30;;;;;;;;;;;7.10;99.90;;;5.76;100.00;96404.25;5021063;28;1288;-73
2023/10/25 02:09:58;;;;;;;;;;;7.00;99.90;;;5.69;100.00;96404.59;5018311;28;1220;-74
2023/10/25 02:12:25;;;;;;;;;;;6.90;99.90;;;5.60;100.00;96404.06;5020813;28;1922;-74
2023/10/25 02:14:52;;;;;;;;;;;6.80;99.90;;;5.50;100.00;96396.81;5022227;28;1372;-74
2023/10/25 02:17:19;;;;;;;;;;;6.70;99.90;;;5.52;100.00;96393.25;5022077;28;1421;-73
2023/10/25 02:19:46;;;;;;;;;;;6.60;99.90;;;5.57;100.00;96390.50;5021874;28;1465;-74
2023/10/25 02:22:13;;;;;;;;;;;6.60;99.90;;;5.62;100.00;96386.81;5021250;28;1469;-74
2023/10/25 02:24:40;;;;;;;;;;;6.70;99.90;;;5.70;100.00;96378.75;5022665;28;1447;-74
2023/10/25 02:27:07;;;;;;;;;;;6.80;99.90;;;5.65;100.00;96371.22;5016084;28;1414;-74
2023/10/25 02:29:34;;;;;;;;;;;6.80;99.90;;;5.58;100.00;96371.56;5020374;28;1663;-74
2023/10/25 02:32:02;;;;;;;;;;;6.80;99.90;;;5.55;100.00;96375.09;5018486;28;1556;-74
2023/10/25 02:34:31;;;;;;;;;;;6.80;99.90;;;5.39;100.00;96382.63;5024379;28;2051;-75
2023/10/25 02:36:58;;;;;;;;;;;6.70;99.90;;;5.38;100.00;96375.81;5024318;28;1326;-74
2023/10/25 02:39:26;;;;;;;;;;;6.60;99.90;;;5.31;100.00;96369.22;5022108;28;1442;-74
2023/10/25 02:41:53;;;;;;;;;;;6.50;99.90;;;5.37;100.00;96365.56;5014633;28;1442;-74
2023/10/25 02:44:21;;;;;;;;;;;6.40;99.90;;;5.24;100.00;96360.09;5020106;28;1390;-74
2023/10/25 02:46:48;;;;;;;;;;;6.40;99.90;;;5.25;100.00;96354.06;5018404;28;1201;-74
2023/10/25 02:49:16;;;;;;;;;;;6.40;99.90;;;5.28;100.00;96346.19;5019715;28;1418;-74
2023/10/25 02:51:43;;;;;;;;;;;6.40;99.90;;;5.23;100.00;96348.13;5022631;28;1486;-74
2023/10/25 02:54:10;;;;;;;;;;;6.40;99.90;;;5.27;100.00;96331.69;5018894;28;1993;-73
2023/10/25 02:56:37;;;;;;;;;;;6.40;99.90;;;5.17;100.00;96328.63;5006759;28;1756;-74
2023/10/25 02:59:04;;;;;;;;;;;6.40;99.90;;;4.99;100.00;96337.91;5021772;28;1496;-74
2023/10/25 03:01:31;;;;;;;;;;;6.30;99.90;;;4.91;100.00;96332.28;5024788;28;1500;-74
2023/10/25 03:03:58;;;;;;;;;;;6.10;99.90;;;4.93;100.00;96332.22;5019004;28;1636;-72
2023/10/25 03:06:26;;;;;;;;;;;6.10;99.90;;;4.85;100.00;96321.38;5022864;28;1407;-73
2023/10/25 03:08:53;;;;;;;;;;;6.00;99.90;;;4.85;100.00;96314.50;5003553;28;1352;-74
2023/10/25 03:11:19;;;;;;;;;;;6.10;99.90;;;4.93;100.00;96311.66;5021549;28;1615;-73
2023/10/25 03:13:46;;;;;;;;;;;6.10;99.90;;;4.75;100.00;96306.34;5005449;28;1989;-74
2023/10/25 03:16:14;;;;;;;;;;;6.00;99.90;;;4.73;100.00;96302.97;5022951;28;1450;-73
2023/10/25 03:18:42;;;;;;;;;;;6.00;99.90;;;4.69;100.00;96308.31;5021844;28;1743;-73
2023/10/25 03:21:09;;;;;;;;;;;5.90;99.90;;;4.62;100.00;96310.28;5021588;28;1645;-73
2023/10/25 03:23:36;;;;;;;;;;;5.80;99.90;;;4.58;100.00;96307.00;5018727;28;1443;-73
2023/10/25 03:26:04;;;;;;;;;;;5.70;99.90;;;4.64;100.00;96294.81;5023142;28;1691;-73
2023/10/25 03:28:32;;;;;;;;;;;5.80;99.90;;;4.65;100.00;96299.03;5016917;28;1465;-74
2023/10/25 03:31:07;;;;;;;;;;;5.80;99.90;;;4.60;100.00;96294.91;5025252;28;1459;-73
2023/10/25 03:33:34;;;;;;;;;;;5.80;99.90;;;4.63;100.00;96296.56;5004927;28;2007;-73
2023/10/25 03:36:01;;;;;;;;;;;5.80;99.90;;;4.60;100.00;96291.50;5018896;28;1400;-74
2023/10/25 03:38:28;;;;;;;;;;;5.80;99.90;;;4.57;100.00;96286.50;5023118;28;1364;-73
2023/10/25 03:41:06;;;;;;;;;;;5.80;99.90;;;4.57;100.00;96283.94;5023094;28;2022;-73
2023/10/25 03:43:35;;;;;;;;;;;5.80;99.90;;;4.34;100.00;96282.25;5019363;28;1421;-74
2023/10/25 03:46:03;;;;;;;;;;;5.70;99.90;;;4.31;100.00;96277.22;5017957;28;1519;-74
2023/10/25 03:48:32;;;;;;;;;;;5.60;99.90;;;4.35;100.00;96284.75;5018852;28;1378;-74
2023/10/25 03:51:02;;;;;;;;;;;5.50;99.90;;;4.34;100.00;96282.25;5025809;28;1424;-74
2023/10/25 03:53:29;;;;;;;;;;;5.50;99.90;;;4.40;100.00;96271.72;5021177;28;1985;-74
2023/10/25 03:55:56;;;;;;;;;;;5.50;99.90;;;4.38;100.00;96278.69;5022079;28;1770;-74
2023/10/25 03:58:24;;;;;;;;;;;5.50;99.90;;;4.34;100.00;96269.41;5008238;28;1470;-74
2023/10/25 04:01:03;;;;;;;;;;;5.50;99.90;;;4.38;100.00;96263.28;5022193;28;1798;-74
2023/10/25 04:03:36;;;;;;;;;;;5.60;99.90;;;4.36;100.00;96252.22;5021778;28;1437;-74
2023/10/25 04:06:04;;;;;;;;;;;5.60;99.90;;;4.14;100.00;96250.47;5019644;28;1470;-73
2023/10/25 04:08:31;;;;;;;;;;;5.50;99.90;;;4.05;100.00;96245.69;5020906;28;1503;-74
2023/10/25 04:10:59;;;;;;;;;;;5.40;99.90;;;4.03;100.00;96238.94;5008851;28;1442;-73
2023/10/25 04:13:26;;;;;;;;;;;5.30;99.90;;;4.04;100.00;96244.03;5027109;28;1996;-74
2023/10/25 04:15:57;;;;;;;;;;;5.20;99.90;;;4.08;100.00;96237.03;5007937;28;1594;-73
2023/10/25 04:18:25;;;;;;;;;;;5.20;99.90;;;4.33;100.00;96230.06;5026356;28;1396;-74
2023/10/25 04:20:52;;;;;;;;;;;5.30;99.90;;;4.63;100.00;96226.31;5026407;28;1508;-74
2023/10/25 04:23:19;;;;;;;;;;;5.40;99.90;;;4.98;100.00;96212.84;5025844;28;1593;-73
2023/10/25 04:25:46;;;;;;;;;;;5.70;99.90;;;5.35;100.00;96198.38;5029207;28;1608;-73
2023/10/25 04:28:13;;;;;;;;;;;6.00;99.90;;;5.63;100.00;96181.69;5025009;28;1425;-74
2023/10/25 04:30:41;;;;;;;;;;;6.20;99.90;;;5.81;100.00;96175.72;5012112;28;1436;-74
2023/10/25 04:33:08;;;;;;;;;;;6.40;99.90;;;6.00;100.00;96173.16;5023042;28;1902;-74
2023/10/25 04:35:35;;;;;;;;;;;6.60;99.90;;;6.15;100.00;96166.44;5020631;28;1519;-74
2023/10/25 04:38:02;;;;;;;;;;;6.80;99.90;;;6.17;100.00;96154.31;5021473;28;1191;-74
2023/10/25 04:40:31;;;;;;;;;;;6.80;99.90;;;6.35;100.00;96144.88;5036176;28;1462;-74
2023/10/25 04:42:58;;;;;;;;;;;7.00;99.90;;;6.40;100.00;96145.47;5029253;28;1417;-74
2023/10/25 04:45:25;;;;;;;;;;;;;;;6.46;100.00;96134.88;5019623;28;1421;-73
2023/10/25 04:47:52;;;;;;;;;;;7.10;99.90;;;6.53;100.00;96132.00;5023435;28;1371;-73
2023/10/25 04:50:23;;;;;;;;;;;7.20;99.90;;;6.60;100.00;96121.31;5024729;28;1235;-74
2023/10/25 04:52:50;;;;;;;;;;;7.20;99.90;;;6.69;100.00;96107.94;5005805;28;1907;-74
2023/10/25 04:55:17;;;;;;;;;;;7.30;99.90;;;6.79;100.00;96099.75;5022134;28;1679;-74
2023/10/25 04:57:44;;;;;;;;;;;7.40;99.90;;;6.89;100.00;96095.78;5023093;28;1475;-74
2023/10/25 05:00:12;;;;;;;;;;;7.50;99.90;;;6.91;100.00;96097.38;5022907;28;1651;-73
2023/10/25 05:02:39;;;;;;;;;;;7.60;99.90;;;6.98;100.00;96087.56;5027189;28;1568;-74
2023/10/25 05:05:07;;;;;;;;;;;7.70;99.90;;;7.13;100.00;96088.50;5024118;28;1357;-74
2023/10/25 05:07:38;;;;;;;;;;;7.70;99.90;;;7.22;100.00;96077.69;5023738;28;1220;-74
2023/10/25 05:10:09;;;;;;;;;;;7.80;99.90;;;7.32;100.00;96076.31;5017955;28;1667;-74
2023/10/25 05:12:44;;;;;;;;;;;7.90;99.90;;;7.39;100.00;96071.66;5022477;28;1411;-73
2023/10/25 05:15:16;;;;;;;;;;;8.00;99.90;;;7.46;100.00;96054.06;5017826;28;1903;-73
2023/10/25 05:17:45;;;;;;;;;;;8.10;99.90;;;7.52;100.00;96040.81;5025158;28;1417;-72
2023/10/25 05:20:13;;;;;;;;;;;8.20;99.90;;;7.58;100.00;96024.16;5026131;28;1676;-74
2023/10/25 05:22:42;;;;;;;;;;;8.30;99.90;;;7.69;100.00;96022.66;5021278;28;1513;-74
2023/10/25 05:25:10;;;;;;;;;;;8.40;99.90;;;7.78;100.00;96010.13;5021353;28;1360;-74
2023/10/25 05:27:38;;;;;;;;;;;8.40;99.90;;;7.78;100.00;96002.38;5023716;28;1503;-74
2023/10/25 05:30:07;;;;;;;;;;;8.50;99.90;;;7.88;100.00;96006.94;5026296;28;1426;-74
2023/10/25 05:32:36;;;;;;;;;;;8.50;99.90;;;7.88;100.00;96004.34;5036542;28;1430;-74
2023/10/25 05:35:05;;;;;;;;;;;8.60;99.90;;;7.87;100.00;96007.03;5020691;28;1967;-75
2023/10/25 05:37:32;;;;;;;;;;;8.60;99.90;;;7.95;100.00;95997.91;5025990;28;1430;-74
2023/10/25 05:40:00;;;;;;;;;;;8.60;99.90;;;7.90;100.00;95996.53;5023116;28;1514;-74
2023/10/25 05:42:27;;;;;;;;;;;8.60;99.90;;;7.96;100.00;95991.84;5023121;28;1418;-74
2023/10/25 05:44:55;;;;;;;;;;;8.70;99.90;;;7.96;100.00;95993.59;5020746;28;1240;-74
2023/10/25 05:47:26;;;;;;;;;;;8.70;99.90;;;7.96;100.00;95985.84;5024972;28;1678;-74
2023/10/25 05:49:53;;;;;;;;;;;8.70;99.90;;;8.05;100.00;95982.72;5029630;28;1450;-75
2023/10/25 05:52:21;;;;;;;;;;;8.70;99.90;;;8.13;100.00;95984.84;5003935;28;1419;-74
2023/10/25 05:54:48;;;;;;;;;;;8.70;99.90;;;8.08;100.00;95981.72;5004666;28;1993;-73
2023/10/25 05:57:16;;;;;;;;;;;8.80;99.90;;;8.12;100.00;95978.03;5021241;28;1501;-73
2023/10/25 05:59:43;;;;;;;;;;;8.80;99.90;;;8.18;100.00;95968.13;5024292;28;1426;-74
2023/10/25 06:02:14;;;;;;;;;;;8.90;99.90;;;8.22;100.00;95971.38;5005429;28;1372;-74
2023/10/25 06:04:42;;;;;;;;;;;8.90;99.90;;;8.22;100.00;95973.16;5019822;28;1437;-74
2023/10/25 06:07:11;;;;;;;;;;;8.90;99.90;;;8.21;100.00;95963.72;5022554;28;1343;-73
2023/10/25 06:09:39;;;;;;;;;;;9.00;99.90;;;8.25;100.00;95963.44;5022618;28;1423;-74
2023/10/25 06:12:07;;;;;;;;;;;9.00;99.90;;;8.23;100.00;95965.28;5019906;28;1422;-75
2023/10/25 06:14:34;;;;;;;;;;;9.00;99.90;;;8.28;100.00;95963.28;5020366;28;1997;-73
2023/10/25 06:17:01;;;;;;;;;;;9.10;99.90;;;8.24;100.00;95961.78;5004928;28;4539;-74
2023/10/25 06:19:28;;;;;;;;;;;9.10;99.90;;;8.36;100.00;95955.06;5020081;28;1407;-73
2023/10/25 06:21:55;;;;;;;;;;;9.10;99.90;;;8.40;100.00;95964.34;5025116;28;1490;-74
2023/10/25 06:24:22;;;;;;;;;;;9.10;99.90;;;8.42;100.00;95953.91;5036310;28;4827;-73
2023/10/25 06:26:49;;;;;;;;;;;9.10;99.90;;;8.50;100.00;95954.25;5018500;28;1537;-73
2023/10/25 06:29:16;;;;;;;;;;;9.10;99.90;;;8.47;100.00;95964.81;5016272;28;1094;-74
2023/10/25 06:31:50;;;;;;;;;;;9.10;99.90;;;8.47;100.00;95955.28;5018697;28;2328;-74
2023/10/25 06:34:19;;;;;;;;;;;9.10;99.90;;;8.57;100.00;95966.72;5028950;28;1958;-73
2023/10/25 06:36:47;;;;;;;;;;;9.10;99.90;;;8.53;100.00;95967.84;5012266;28;1169;-75
2023/10/25 06:39:14;;;;;;;;;;;9.10;99.90;;;8.57;100.00;95966.72;5024296;28;1405;-74
2023/10/25 06:41:43;;;;;;;;;;;9.20;99.90;;;8.62;100.00;95960.44;5014390;28;1308;-74
2023/10/25 06:44:10;;;;;;;;;;;9.20;99.90;;;8.58;100.00;95962.41;5007105;28;1511;-74
2023/10/25 06:46:40;;;;;;;;;;;9.30;99.90;;;8.68;100.00;95947.16;5024832;28;1387;-74
2023/10/25 06:49:08;;;;;;;;;;;9.30;99.90;;;8.71;100.00;95952.13;5018096;28;1067;-73
2023/10/25 06:51:35;;;;;;;;;;;9.40;99.90;;;8.80;100.00;95956.72;5018068;28;1403;-74
2023/10/25 06:54:02;;;;;;;;;;;9.40;99.90;;;8.72;100.00;95953.81;5021345;28;1910;-75
2023/10/25 06:56:30;;;;;;;;;;;9.40;99.90;;;8.82;100.00;95949.72;5018413;28;2217;-74
2023/10/25 06:58:57;;;;;;;;;;;9.40;99.90;;;8.92;100.00;95943.06;5021072;28;1404;-73
2023/10/25 07:01:26;;;;;;;;;;;;;;;8.82;100.00;95938.53;5006121;28;1501;-74
2023/10/25 07:03:56;;;;;;;;;;;9.60;99.90;;;8.92;100.00;95924.13;5019184;28;1453;-75
2023/10/25 07:06:24;;;;;;;;;;;9.60;99.90;;;8.90;100.00;95931.16;5021980;28;1235;-74
2023/10/25 07:08:52;;;;;;;;;;;9.70;99.90;;;8.96;100.00;95938.50;5022554;28;1252;-74
2023/10/25 07:11:19;;;;;;;;;;;9.70;99.90;;;9.07;100.00;95923.13;5022382;28;1255;-73
2023/10/25 07:13:50;;;;;;;;;;;9.70;99.90;;;9.15;100.00;95923.50;5016113;28;1964;-74
2023/10/25 07:16:18;;;;;;;;;;;9.70;99.90;;;9.06;100.00;95924.06;5035225;28;1416;-73
2023/10/25 07:18:47;;;;;;;;;;;9.80;99.90;;;9.21;100.00;95923.13;5017721;28;1496;-74
2023/10/25 07:21:15;;;;;;;;;;;9.80;99.90;;;9.27;100.00;95929.66;5017012;28;1489;-75
2023/10/25 07:23:41;;;;;;;;;;;9.90;99.90;;;9.23;100.00;95930.75;5017996;28;1305;-73
2023/10/25 07:26:09;;;;;;;;;;;9.90;99.90;;;9.31;100.00;95936.28;5016333;28;1484;-74
2023/10/25 07:28:36;;;;;;;;;;;10.00;99.90;;;9.44;100.00;95928.56;5033581;28;1625;-75
2023/10/25 07:31:03;;;;;;;;;;;10.10;99.90;;;9.52;100.00;95933.25;5015783;28;1961;-74
2023/10/25 07:33:30;;;;;;;;;;;10.10;99.90;;;9.71;100.00;95931.13;5015183;28;1919;-74
2023/10/25 07:35:58;;;;;;;;;;;10.20;99.90;;;9.75;100.00;95936.94;5017132;28;1005;-73
2023/10/25 07:38:24;;;;;;;;;;;10.20;99.90;;;9.80;100.00;95932.28;5017246;28;1428;-74
2023/10/25 07:40:51;;;;;;;;;;;10.30;99.90;;;9.90;100.00;95930.75;5014174;28;1027;-73
2023/10/25 07:43:20;;;;;;;;;;;10.40;99.90;;;10.08;100.00;95927.84;5021250;28;1403;-77
2023/10/25 07:45:47;;;;;;;;;;;10.50;99.90;;;10.19;100.00;95925.38;5018233;28;1380;-73
2023/10/25 07:48:15;;;;;;;;;;;10.60;99.90;;;10.09;100.00;95924.34;5020211;28;1269;-74
2023/10/25 07:50:41;;;;;;;;;;;10.60;99.90;;;9.98;100.00;95933.66;5023786;28;1441;-73
2023/10/25 07:53:09;;;;;;;;;;;10.60;99.90;;;10.07;100.00;95936.56;5024546;28;1225;-74
2023/10/25 07:55:40;;;;;;;;;;;10.60;99.90;;;10.02;100.00;95936.88;5029660;28;1987;-74
2023/10/25 07:58:10;;;;;;;;;;;10.60;99.90;;;9.91;100.00;95932.41;5026517;28;1514;-74
2023/10/25 08:00:52;;;;;;;;;;;10.60;99.90;;;9.90;100.00;95941.13;5026436;28;1492;-74
2023/10/25 08:03:20;;;;;;;;;;;10.60;99.90;;;9.97;100.00;95929.41;5020241;28;1391;-74
2023/10/25 08:05:47;;;;;;;;;;;10.60;99.90;;;9.94;100.00;95929.59;5018562;28;1008;-72
2023/10/25 08:08:15;;;;;;;;;;;10.60;99.90;;;10.16;100.00;95935.97;5021853;28;1349;-74
2023/10/25 08:10:41;;;;;;;;;;;10.70;99.90;;;10.20;100.00;95940.00;5029418;28;1046;-73
2023/10/25 08:13:09;;;;;;;;;;;10.60;99.90;;;10.15;100.00;95939.47;5020599;28;1315;-74
2023/10/25 08:15:36;;;;;;;;;;;10.60;99.90;;;10.15;100.00;95926.50;5023937;28;1985;-74
2023/10/25 08:18:04;;;;;;;;;;;10.60;99.90;;;10.00;100.00;95925.78;5022165;28;1324;-74
2023/10/25 08:20:36;;;;;;;;;;;10.60;99.90;;;10.01;100.00;95928.28;5039299;28;1536;-74
2023/10/25 08:23:03;;;;;;;;;;;10.50;99.90;;;10.03;100.00;95928.16;5021105;28;1415;-74
2023/10/25 08:25:34;;;;;;;;;;;10.40;99.90;;;9.97;100.00;95932.00;5018503;28;1483;-74
2023/10/25 08:28:01;;;;;;;;;;;10.50;99.90;;;9.93;100.00;95929.72;5023736;28;1456;-74
2023/10/25 08:30:28;;;;;;;;;;;10.50;99.90;;;9.87;100.00;95925.75;5019046;28;1564;-73
2023/10/25 08:32:55;;;;;;;;;;;10.50;99.90;;;9.85;100.00;95912.06;5020129;28;1300;-74
2023/10/25 08:35:22;;;;;;;;;;;10.50;99.90;;;9.81;100.00;95921.81;5016490;28;2426;-73
2023/10/25 08:37:50;;;;;;;;;;;10.50;99.90;;;9.82;100.00;95920.06;5033147;28;1508;-74
2023/10/25 08:40:16;;;;;;;;;;;10.50;99.90;;;9.78;100.00;95905.63;5020856;28;1399;-75
2023/10/25 08:42:43;;;;;;;;;;;10.50;99.90;;;9.93;100.00;95909.81;5017865;28;1375;-75
2023/10/25 08:45:14;;;;;;;;;;;10.40;99.90;;;9.82;100.00;95901.91;5016963;28;1675;-75
2023/10/25 08:47:44;;;;;;;;;;;10.50;99.90;;;9.78;100.00;95893.53;5034183;28;1499;-75
2023/10/25 08:50:13;;;;;;;;;;;10.40;99.90;;;9.66;100.00;95909.03;5022218;28;1471;-75
2023/10/25 08:52:42;;;;;;;;;;;10.40;99.90;;;9.62;100.00;95904.06;5020461;28;1460;-74
2023/10/25 08:55:11;;;;;;;;;;;10.40;99.90;;;9.56;100.00;95901.88;5015519;28;1903;-76
2023/10/25 08:57:38;;;;;;;;;;;10.40;99.90;;;9.60;100.00;95899.91;5004997;28;1452;-76
2023/10/25 09:00:09;;;;;;;;;;;10.30;99.90;;;9.63;100.00;95894.53;5019511;28;1454;-76
2023/10/25 09:02:37;;;;;;;;;;;10.30;99.90;;;9.58;100.00;95887.06;5037559;28;1532;-76
2023/10/25 09:05:08;;;;;;;;;;;10.30;99.90;;;9.59;100.00;95877.53;5023276;28;1433;-75
2023/10/25 09:07:36;;;;;;;;;;;10.20;99.90;;;9.55;100.00;95889.03;5020902;28;1422;-75
2023/10/25 09:10:11;;;;;;;;;;;10.20;99.90;;;9.61;100.00;95876.50;5025571;28;1038;-77
2023/10/25 09:12:38;;;;;;;;;;;10.20;99.90;;;9.57;100.00;95863.84;5012055;28;1276;-75
2023/10/25 09:15:06;;;;;;;;;;;10.20;99.90;;;9.60;100.00;95868.81;5020904;28;1934;-77
2023/10/25 09:17:34;;;;;;;;;;;10.20;99.90;;;9.56;100.00;95867.38;5025920;28;1428;-77
2023/10/25 09:20:02;;;;;;;;;;;10.20;99.90;;;9.47;100.00;95858.44;5004884;28;1014;-77
2023/10/25 09:22:30;;;;;;;;;;;10.20;99.90;;;9.40;100.00;95852.03;5009018;28;1586;-76
2023/10/25 09:24:59;;;;;;;;;;;10.10;99.90;;;9.39;100.00;95851.16;5037843;28;1444;-76
2023/10/25 09:27:28;;;;;;;;;;;10.10;99.90;;;9.31;100.00;95829.31;5016568;28;1369;-75
2023/10/25 09:30:14;;;;;;;;;;;10.10;99.90;;;9.36;100.00;95822.91;5024393;28;1632;-76
2023/10/25 09:32:53;;;;;;;;;;;10.00;99.90;;;9.36;100.00;95819.47;5018937;28;1336;-76
2023/10/25 09:35:20;;;;;;;;;;;10.00;99.90;;;9.34;100.00;95805.81;5015097;28;1899;-76
2023/10/25 09:37:49;;;;;;;;;;;10.00;99.90;;;9.36;100.00;95809.13;5020034;28;1647;-75
2023/10/25 09:40:16;;;;;;;;;;;10.00;99.90;;;9.36;100.00;95799.59;5020801;28;1407;-77
2023/10/25 09:42:48;;;;;;;;;;;10.00;99.90;;;9.35;100.00;95789.31;5021161;28;1292;-75
2023/10/25 09:45:20;;;;;;;;;;;10.00;99.90;;;9.35;100.00;95781.56;5022342;28;1392;-76
2023/10/25 09:47:52;;;;;;;;;;;10.00;99.90;;;9.47;100.00;95788.53;5013470;28;1451;-76
2023/10/25 09:50:31;;;;;;;;;;;10.00;99.90;;;9.43;100.00;95771.53;5028299;28;1345;-75
2023/10/25 09:53:10;;;;;;;;;;;10.00;99.90;;;9.40;100.00;95757.03;5020907;28;1438;-76
2023/10/25 09:55:37;;;;;;;;;;;10.10;99.90;;;9.49;100.00;95765.94;5030678;28;1973;-76
2023/10/25 09:58:05;;;;;;;;;;;10.20;99.90;;;9.40;100.00;95769.16;5019476;28;1374;-77
2023/10/25 10:00:32;;;;;;;;;;;10.10;99.90;;;9.43;100.00;95759.41;5040078;28;1585;-76
2023/10/25 10:03:04;;;;;;;;;;;10.10;99.90;;;9.46;100.00;95758.38;5021266;28;1386;-77
2023/10/25 10:05:45;;;;;;;;;;;10.10;99.90;;;9.48;100.00;95740.97;5023527;28;1410;-77
2023/10/25 10:08:16;;;;;;;;;;;10.10;99.90;;;9.66;100.00;95738.06;5016456;28;1376;-77
2023/10/25 10:10:58;;;;;;;;;;;10.20;99.90;;;9.66;100.00;95727.72;5038908;28;1385;-75
2023/10/25 10:13:26;;;;;;;;;;;10.20;99.90;;;9.63;100.00;95732.16;5038750;28;2015;-76
2023/10/25 10:16:09;;;;;;;;;;;10.20;99.90;;;9.86;100.00;95729.75;5019053;28;1967;-76
2023/10/25 10:18:45;;;;;;;;;;;10.20;99.90;;;9.86;100.00;95715.97;5021046;28;1208;-76
2023/10/25 10:21:15;;;;;;;;;;;10.30;99.90;;;9.82;100.00;95711.00;5019417;28;1411;-75
2023/10/25 10:23:51;;;;;;;;;;;10.40;99.90;;;9.86;100.00;95713.38;5018586;28;1419;-75
2023/10/25 10:26:43;;;;;;;;;;;10.40;99.90;;;9.94;100.00;95706.72;5018417;28;1478;-76
2023/10/25 10:29:32;;;;;;;;;;;10.40;99.90;;;9.73;100.00;95703.84;5023444;28;1443;-76
2023/10/25 10:32:04;;;;;;;;;;;10.50;99.90;;;9.82;100.00;95707.56;5016322;28;1538;-75
2023/10/25 10:34:57;;;;;;;;;;;10.50;99.90;;;9.82;100.00;95690.25;5021153;28;1903;-75
2023/10/25 10:37:26;;;;;;;;;;;10.40;99.90;;;9.70;100.00;95683.34;5015236;28;1526;-75
2023/10/25 10:39:56;;;;;;;;;;;10.40;99.90;;;9.77;100.00;95686.34;5019769;28;1387;-75
2023/10/25 10:42:30;;;;;;;;;;;10.40;99.90;;;9.77;100.00;95679.41;5021818;28;1447;-75
2023/10/25 10:45:05;;;;;;;;;;;10.30;99.90;;;9.79;100.00;95668.94;5017294;28;1637;-75
2023/10/25 10:47:55;;;;;;;;;;;10.30;99.90;;;9.71;100.00;95646.13;5020662;28;1582;-76
2023/10/25 10:50:25;;;;;;;;;;;10.30;99.90;;;9.75;100.00;95639.00;5020057;28;1061;-75
2023/10/25 10:52:53;;;;;;;;;;;10.40;99.90;;;9.80;100.00;95655.03;5024168;28;1687;-77
2023/10/25 10:55:21;;;;;;;;;;;10.30;99.90;;;9.74;100.00;95642.50;5039554;28;2006;-77
2023/10/25 10:57:49;;;;;;;;;;;10.30;99.90;;;9.78;100.00;95633.56;5017997;28;1459;-76
2023/10/25 11:00:19;;;;;;;;;;;10.30;99.90;;;9.76;100.00;95633.72;5017445;28;1332;-76
2023/10/25 11:02:49;;;;;;;;;;;10.30;99.90;;;9.84;100.00;95626.19;5021229;28;1455;-76
2023/10/25 11:05:20;;;;;;;;;;;10.30;99.90;;;9.77;100.00;95634.53;5019245;28;1489;-78
2023/10/25 11:07:48;;;;;;;;;;;10.30;99.90;;;9.82;100.00;95627.25;5028225;28;1398;-78
2023/10/25 11:10:15;;;;;;;;;;;10.30;99.90;;;9.89;100.00;95618.09;5022418;28;1390;-77
2023/10/25 11:12:43;;;;;;;;;;;10.40;99.90;;;9.90;100.00;95619.78;5027526;28;1434;-76
2023/10/25 11:15:11;;;;;;;;;;;10.40;99.90;;;9.90;100.00;95618.91;5017757;28;1906;-77
2023/10/25 11:17:38;;;;;;;;;;;10.40;99.90;;;9.85;100.00;95619.25;5027464;28;1487;-78
2023/10/25 11:20:06;;;;;;;;;;;10.40;99.90;;;9.90;100.00;95603.38;5018277;28;1494;-77
2023/10/25 11:22:35;;;;;;;;;;;10.40;99.90;;;9.81;100.00;95612.66;5019867;28;1446;-77
2023/10/25 11:25:09;;;;;;;;;;;10.40;99.90;;;9.86;100.00;95595.00;5020465;28;1555;-77
2023/10/25 11:27:37;;;;;;;;;;;10.40;99.90;;;9.92;100.00;95585.94;5021015;28;1370;-77
2023/10/25 11:30:05;;;;;;;;;;;10.40;99.90;;;9.89;100.00;95581.81;5020742;28;1592;-76
2023/10/25 11:32:33;;;;;;;;;;;10.40;99.90;;;9.89;100.00;95570.63;5024777;28;1375;-74
2023/10/25 11:35:02;;;;;;;;;;;10.40;99.90;;;9.93;100.00;95572.91;5026157;28;1906;-76
2023/10/25 11:37:42;;;;;;;;;;;10.40;99.90;;;9.89;100.00;95565.47;5025402;28;1782;-77
2023/10/25 11:40:10;;;;;;;;;;;10.40;99.90;;;9.91;100.00;95555.81;5041312;28;1527;-76